sensor_id;sensor_type;location;lat;lon;timestamp;pressure;altitude;pressure_sealevel;temperature;humidity
19676;BME280;39539;52.202;9.876;2023-03-26T00:01:29;99667.25;;;7.49;100.00
19676;BME280;39539;52.202;9.876;2023-03-26T00:03:58;99676.59;;;7.52;100.00
19676;BME280;39539;52.202;9.876;2023-03-26T00:06:35;99675.38;;;7.54;100.00
19676;BME280;39539;52.202;9.876;2023-03-26T00:09:05;99672.94;;;7.53;100.00
19676;BME280;39539;52.202;9.876;2023-03-26T00:11:30;99666.06;;;7.45;100.00
19676;BME280;39539;52.202;9.876;2023-03-26T00:13:56;99669.69;;;7.51;100.00
19676;BME280;39539;52.202;9.876;2023-03-26T00:16:27;99679.44;;;7.57;100.00
19676;BME280;39539;52.202;9.876;2023-03-26T00:18:53;99677.63;;;7.51;100.00
19676;BME280;39539;52.202;9.876;2023-03-26T00:21:20;99681.09;;;7.51;100.00
19676;BME280;39539;52.202;9.876;2023-03-26T00:23:46;99688.84;;;7.46;100.00
19676;BME280;39539;52.202;9.876;2023-03-26T00:26:14;99683.97;;;7.43;100.00
19676;BME280;39539;52.202;9.876;2023-03-26T00:28:41;99685.00;;;7.42;100.00
19676;BME280;39539;52.202;9.876;2023-03-26T00:31:09;99696.38;;;7.36;100.00
19676;BME280;39539;52.202;9.876;2023-03-26T00:33:35;99690.72;;;7.32;100.00
19676;BME280;39539;52.202;9.876;2023-03-26T00:36:04;99687.06;;;7.33;100.00
19676;BME280;39539;52.202;9.876;2023-03-26T00:38:30;99693.34;;;7.39;100.00
19676;BME280;39539;52.202;9.876;2023-03-26T00:40:59;99683.78;;;7.38;100.00
19676;BME280;39539;52.202;9.876;2023-03-26T00:43:31;99690.91;;;7.37;100.00
19676;BME280;39539;52.202;9.876;2023-03-26T00:45:57;99702.28;;;7.38;100.00
19676;BME280;39539;52.202;9.876;2023-03-26T00:48:22;99690.28;;;7.42;100.00
19676;BME280;39539;52.202;9.876;2023-03-26T00:50:49;99695.34;;;7.50;100.00
19676;BME280;39539;52.202;9.876;2023-03-26T00:53:16;99704.06;;;7.51;100.00
19676;BME280;39539;52.202;9.876;2023-03-26T00:55:43;99695.72;;;7.54;100.00
19676;BME280;39539;52.202;9.876;2023-03-26T00:58:09;99700.34;;;7.58;100.00
19676;BME280;39539;52.202;9.876;2023-03-26T01:00:52;99706.63;;;7.64;100.00
19676;BME280;39539;52.202;9.876;2023-03-26T01:03:22;99697.91;;;7.63;100.00
19676;BME280;39539;52.202;9.876;2023-03-26T01:05:57;99707.19;;;7.73;100.00
19676;BME280;39539;52.202;9.876;2023-03-26T01:08:33;99712.91;;;7.76;100.00
19676;BME280;39539;52.202;9.876;2023-03-26T01:11:07;99707.44;;;7.71;100.00
19676;BME280;39539;52.202;9.876;2023-03-26T01:13:40;99701.50;;;7.76;100.00
19676;BME280;39539;52.202;9.876;2023-03-26T01:16:12;99719.75;;;7.84;100.00
19676;BME280;39539;52.202;9.876;2023-03-26T01:18:45;99720.78;;;7.83;100.00
19676;BME280;39539;52.202;9.876;2023-03-26T01:21:11;99710.06;;;7.71;100.00
19676;BME280;39539;52.202;9.876;2023-03-26T01:23:45;99713.53;;;7.72;100.00
19676;BME280;39539;52.202;9.876;2023-03-26T01:28:55;99718.06;;;7.58;100.00
19676;BME280;39539;52.202;9.876;2023-03-26T01:31:27;99711.19;;;7.50;100.00
19676;BME280;39539;52.202;9.876;2023-03-26T01:34:24;99705.78;;;7.32;100.00
19676;BME280;39539;52.202;9.876;2023-03-26T01:37:19;99720.19;;;7.36;100.00
19676;BME280;39539;52.202;9.876;2023-03-26T01:39:52;99724.47;;;7.37;100.00
19676;BME280;39539;52.202;9.876;2023-03-26T01:42:29;99715.72;;;7.36;100.00
19676;BME280;39539;52.202;9.876;2023-03-26T01:45:03;99709.22;;;7.32;100.00
19676;BME280;39539;52.202;9.876;2023-03-26T01:47:32;99711.06;;;7.32;100.00
19676;BME280;39539;52.202;9.876;2023-03-26T01:49:58;99696.66;;;7.21;100.00
19676;BME280;39539;52.202;9.876;2023-03-26T01:52:24;99707.22;;;7.21;100.00
19676;BME280;39539;52.202;9.876;2023-03-26T01:54:52;99697.91;;;7.12;100.00
19676;BME280;39539;52.202;9.876;2023-03-26T01:57:33;99702.81;;;7.08;100.00
19676;BME280;39539;52.202;9.876;2023-03-26T02:05:36;99698.00;;;6.79;100.00
19676;BME280;39539;52.202;9.876;2023-03-26T02:08:19;99697.41;;;6.77;100.00
19676;BME280;39539;52.202;9.876;2023-03-26T02:10:50;99695.97;;;6.67;100.00
19676;BME280;39539;52.202;9.876;2023-03-26T02:13:16;99695.16;;;6.67;100.00
19676;BME280;39539;52.202;9.876;2023-03-26T02:15:57;99690.69;;;6.74;100.00
19676;BME280;39539;52.202;9.876;2023-03-26T02:18:23;99684.59;;;6.73;100.00
19676;BME280;39539;52.202;9.876;2023-03-26T02:20:51;99693.94;;;6.83;100.00
19676;BME280;39539;52.202;9.876;2023-03-26T02:23:18;99692.72;;;6.85;100.00
19676;BME280;39539;52.202;9.876;2023-03-26T02:25:45;99694.75;;;6.83;100.00
19676;BME280;39539;52.202;9.876;2023-03-26T02:28:10;99691.47;;;6.88;100.00
19676;BME280;39539;52.202;9.876;2023-03-26T02:30:35;99687.00;;;6.82;100.00
19676;BME280;39539;52.202;9.876;2023-03-26T02:33:02;99682.56;;;6.82;100.00
19676;BME280;39539;52.202;9.876;2023-03-26T02:35:27;99689.66;;;6.82;100.00
19676;BME280;39539;52.202;9.876;2023-03-26T02:37:52;99691.88;;;6.85;100.00
19676;BME280;39539;52.202;9.876;2023-03-26T02:40:18;99672.41;;;6.72;100.00
19676;BME280;39539;52.202;9.876;2023-03-26T02:42:45;99693.09;;;6.89;100.00
19676;BME280;39539;52.202;9.876;2023-03-26T02:45:11;99674.03;;;6.80;100.00
19676;BME280;39539;52.202;9.876;2023-03-26T02:47:37;99658.97;;;6.81;100.00
19676;BME280;39539;52.202;9.876;2023-03-26T02:50:02;99680.06;;;7.01;100.00
19676;BME280;39539;52.202;9.876;2023-03-26T02:52:28;99687.19;;;7.00;100.00
19676;BME280;39539;52.202;9.876;2023-03-26T02:54:53;99679.25;;;7.00;100.00
19676;BME280;39539;52.202;9.876;2023-03-26T02:57:19;99680.47;;;6.97;100.00
19676;BME280;39539;52.202;9.876;2023-03-26T02:59:45;99676.19;;;7.03;100.00
19676;BME280;39539;52.202;9.876;2023-03-26T03:02:10;99691.22;;;7.09;100.00
19676;BME280;39539;52.202;9.876;2023-03-26T03:04:37;99678.84;;;7.03;100.00
19676;BME280;39539;52.202;9.876;2023-03-26T03:07:03;99681.66;;;7.02;100.00
19676;BME280;39539;52.202;9.876;2023-03-26T03:09:28;99674.97;;;6.99;100.00
19676;BME280;39539;52.202;9.876;2023-03-26T03:11:54;99668.69;;;7.00;100.00
19676;BME280;39539;52.202;9.876;2023-03-26T03:14:20;99641.53;;;6.80;100.00
19676;BME280;39539;52.202;9.876;2023-03-26T03:16:45;99655.13;;;6.83;100.00
19676;BME280;39539;52.202;9.876;2023-03-26T03:19:11;99669.53;;;6.81;100.00
19676;BME280;39539;52.202;9.876;2023-03-26T03:21:36;99663.06;;;6.77;100.00
19676;BME280;39539;52.202;9.876;2023-03-26T03:24:02;99682.13;;;6.79;100.00
19676;BME280;39539;52.202;9.876;2023-03-26T03:26:28;99675.66;;;6.68;100.00
19676;BME280;39539;52.202;9.876;2023-03-26T03:28:55;99678.50;;;6.66;100.00
19676;BME280;39539;52.202;9.876;2023-03-26T03:31:23;99683.59;;;6.74;100.00
19676;BME280;39539;52.202;9.876;2023-03-26T03:33:51;99679.31;;;6.73;100.00
19676;BME280;39539;52.202;9.876;2023-03-26T03:36:19;99671.78;;;6.70;100.00
19676;BME280;39539;52.202;9.876;2023-03-26T03:38:48;99683.56;;;6.81;100.00
19676;BME280;39539;52.202;9.876;2023-03-26T03:41:14;99670.78;;;6.71;100.00
19676;BME280;39539;52.202;9.876;2023-03-26T03:43:41;99681.31;;;6.85;100.00
19676;BME280;39539;52.202;9.876;2023-03-26T03:46:06;99679.28;;;6.87;100.00
19676;BME280;39539;52.202;9.876;2023-03-26T03:48:32;99681.31;;;6.85;100.00
19676;BME280;39539;52.202;9.876;2023-03-26T03:50:57;99689.84;;;6.87;100.00
19676;BME280;39539;52.202;9.876;2023-03-26T03:53:23;99678.47;;;6.86;100.00
19676;BME280;39539;52.202;9.876;2023-03-26T03:55:54;99684.16;;;6.96;100.00
19676;BME280;39539;52.202;9.876;2023-03-26T03:58:24;99691.47;;;6.94;100.00
19676;BME280;39539;52.202;9.876;2023-03-26T04:00:53;99678.47;;;6.86;100.00
19676;BME280;39539;52.202;9.876;2023-03-26T04:03:25;99684.72;;;6.98;100.00
19676;BME280;39539;52.202;9.876;2023-03-26T04:05:52;99687.38;;;6.98;100.00
19676;BME280;39539;52.202;9.876;2023-03-26T04:08:22;99682.91;;;6.99;100.00
19676;BME280;39539;52.202;9.876;2023-03-26T04:10:48;99690.63;;;7.01;100.00
19676;BME280;39539;52.202;9.876;2023-03-26T04:13:14;99691.25;;;6.96;100.00
19676;BME280;39539;52.202;9.876;2023-03-26T04:15:41;99682.50;;;7.02;100.00
19676;BME280;39539;52.202;9.876;2023-03-26T04:18:07;99696.72;;;7.08;100.00
19676;BME280;39539;52.202;9.876;2023-03-26T04:20:39;99698.75;;;7.06;100.00
19676;BME280;39539;52.202;9.876;2023-03-26T04:23:06;99689.00;;;7.06;100.00
19676;BME280;39539;52.202;9.876;2023-03-26T04:25:33;99678.84;;;7.03;100.00
19676;BME280;39539;52.202;9.876;2023-03-26T04:28:02;99686.16;;;7.08;100.00
19676;BME280;39539;52.202;9.876;2023-03-26T04:30:31;99682.47;;;7.09;100.00
19676;BME280;39539;52.202;9.876;2023-03-26T04:32:58;99687.16;;;7.13;100.00
19676;BME280;39539;52.202;9.876;2023-03-26T04:35:25;99680.03;;;7.07;100.00
19676;BME280;39539;52.202;9.876;2023-03-26T04:37:50;99679.22;;;7.07;100.00
19676;BME280;39539;52.202;9.876;2023-03-26T04:40:19;99684.50;;;7.07;100.00
19676;BME280;39539;52.202;9.876;2023-03-26T04:42:46;99685.94;;;7.09;100.00
19676;BME280;39539;52.202;9.876;2023-03-26T04:45:16;99678.03;;;7.03;100.00
19676;BME280;39539;52.202;9.876;2023-03-26T04:47:46;99676.84;;;6.92;100.00
19676;BME280;39539;52.202;9.876;2023-03-26T04:50:12;99683.38;;;6.83;100.00
19676;BME280;39539;52.202;9.876;2023-03-26T04:52:38;99679.91;;;6.75;100.00
19676;BME280;39539;52.202;9.876;2023-03-26T04:55:18;99670.81;;;6.58;100.00
19676;BME280;39539;52.202;9.876;2023-03-26T04:57:46;99664.72;;;6.58;100.00
19676;BME280;39539;52.202;9.876;2023-03-26T05:00:14;99678.72;;;6.71;100.00
19676;BME280;39539;52.202;9.876;2023-03-26T05:02:41;99671.38;;;6.80;100.00
19676;BME280;39539;52.202;9.876;2023-03-26T05:05:08;99667.50;;;6.76;100.00
19676;BME280;39539;52.202;9.876;2023-03-26T05:07:33;99667.94;;;6.80;100.00
19676;BME280;39539;52.202;9.876;2023-03-26T05:09:58;99668.31;;;6.90;100.00
19676;BME280;39539;52.202;9.876;2023-03-26T05:12:27;99671.75;;;6.90;100.00
19676;BME280;39539;52.202;9.876;2023-03-26T05:14:52;99656.97;;;6.83;100.00
19676;BME280;39539;52.202;9.876;2023-03-26T05:17:17;99663.84;;;6.84;100.00
19676;BME280;39539;52.202;9.876;2023-03-26T05:19:45;99660.78;;;6.87;100.00
19676;BME280;39539;52.202;9.876;2023-03-26T05:22:11;99654.69;;;6.86;100.00
19676;BME280;39539;52.202;9.876;2023-03-26T05:24:37;99661.00;;;6.79;100.00
19676;BME280;39539;52.202;9.876;2023-03-26T05:27:02;99663.06;;;6.77;100.00
19676;BME280;39539;52.202;9.876;2023-03-26T05:29:28;99653.72;;;6.74;100.00
19676;BME280;39539;52.202;9.876;2023-03-26T05:31:53;99663.66;;;6.79;100.00
19676;BME280;39539;52.202;9.876;2023-03-26T05:34:19;99661.22;;;6.84;100.00
19676;BME280;39539;52.202;9.876;2023-03-26T05:36:48;99665.47;;;6.91;100.00
19676;BME280;39539;52.202;9.876;2023-03-26T05:39:13;99650.66;;;6.84;100.00
19676;BME280;39539;52.202;9.876;2023-03-26T05:41:39;99666.47;;;6.97;100.00
19676;BME280;39539;52.202;9.876;2023-03-26T05:44:04;99650.84;;;6.89;100.00
19676;BME280;39539;52.202;9.876;2023-03-26T05:46:30;99674.75;;;7.07;100.00
19676;BME280;39539;52.202;9.876;2023-03-26T05:48:55;99657.91;;;7.02;100.00
19676;BME280;39539;52.202;9.876;2023-03-26T05:51:20;99667.44;;;7.09;100.00
19676;BME280;39539;52.202;9.876;2023-03-26T05:53:48;99672.09;;;7.14;100.00
19676;BME280;39539;52.202;9.876;2023-03-26T05:56:13;99646.28;;;7.09;100.00
19676;BME280;39539;52.202;9.876;2023-03-26T05:58:39;99648.09;;;7.15;100.00
19676;BME280;39539;52.202;9.876;2023-03-26T06:01:09;99656.66;;;7.11;100.00
19676;BME280;39539;52.202;9.876;2023-03-26T06:03:40;99652.38;;;7.16;100.00
19676;BME280;39539;52.202;9.876;2023-03-26T06:06:17;99650.31;;;7.18;100.00
19676;BME280;39539;52.202;9.876;2023-03-26T06:08:44;99650.31;;;7.18;100.00
19676;BME280;39539;52.202;9.876;2023-03-26T06:11:14;99648.09;;;7.22;100.00
19676;BME280;39539;52.202;9.876;2023-03-26T06:13:39;99648.50;;;7.19;100.00
19676;BME280;39539;52.202;9.876;2023-03-26T06:16:05;99627.31;;;7.26;100.00
19676;BME280;39539;52.202;9.876;2023-03-26T06:18:31;99639.22;;;7.48;100.00
19676;BME280;39539;52.202;9.876;2023-03-26T06:20:56;99646.47;;;7.59;100.00
19676;BME280;39539;52.202;9.876;2023-03-26T06:23:21;99633.00;;;7.68;100.00
19676;BME280;39539;52.202;9.876;2023-03-26T06:25:47;99617.13;;;7.68;100.00
19676;BME280;39539;52.202;9.876;2023-03-26T06:28:13;99637.91;;;7.89;100.00
19676;BME280;39539;52.202;9.876;2023-03-26T06:30:38;99634.81;;;7.99;100.00
19676;BME280;39539;52.202;9.876;2023-03-26T06:33:04;99631.47;;;8.10;100.00
19676;BME280;39539;52.202;9.876;2023-03-26T06:35:30;99637.88;;;8.21;100.00
19676;BME280;39539;52.202;9.876;2023-03-26T06:37:56;99631.41;;;8.17;100.00
19676;BME280;39539;52.202;9.876;2023-03-26T06:40:22;99618.88;;;8.05;100.00
19676;BME280;39539;52.202;9.876;2023-03-26T06:42:47;99613.41;;;8.00;100.00
19676;BME280;39539;52.202;9.876;2023-03-26T06:45:13;99629.44;;;8.05;100.00
19676;BME280;39539;52.202;9.876;2023-03-26T06:47:38;99629.63;;;8.10;100.00
19676;BME280;39539;52.202;9.876;2023-03-26T06:50:04;99635.53;;;8.13;100.00
19676;BME280;39539;52.202;9.876;2023-03-26T06:52:30;99618.88;;;8.05;100.00
19676;BME280;39539;52.202;9.876;2023-03-26T06:54:56;99631.66;;;8.08;100.00
19676;BME280;39539;52.202;9.876;2023-03-26T06:57:21;99622.28;;;8.13;100.00
19676;BME280;39539;52.202;9.876;2023-03-26T06:59:46;99616.16;;;8.12;100.00
19676;BME280;39539;52.202;9.876;2023-03-26T07:02:12;99619.13;;;8.22;100.00
19676;BME280;39539;52.202;9.876;2023-03-26T07:04:37;99598.75;;;8.23;100.00
19676;BME280;39539;52.202;9.876;2023-03-26T07:07:03;99605.97;;;8.41;100.00
19676;BME280;39539;52.202;9.876;2023-03-26T07:09:28;99591.75;;;8.35;100.00
19676;BME280;39539;52.202;9.876;2023-03-26T07:11:57;99593.19;;;8.56;100.00
19676;BME280;39539;52.202;9.876;2023-03-26T07:14:23;99596.84;;;8.73;100.00
19676;BME280;39539;52.202;9.876;2023-03-26T07:16:49;99591.47;;;8.80;100.00
19676;BME280;39539;52.202;9.876;2023-03-26T07:19:15;99581.75;;;8.92;100.00
19676;BME280;39539;52.202;9.876;2023-03-26T07:21:41;99573.88;;;9.04;100.00
19676;BME280;39539;52.202;9.876;2023-03-26T07:24:09;99573.06;;;9.04;100.00
19676;BME280;39539;52.202;9.876;2023-03-26T07:29:42;99580.50;;;9.25;100.00
19676;BME280;39539;52.202;9.876;2023-03-26T07:34:50;99569.00;;;9.31;99.45
19676;BME280;39539;52.202;9.876;2023-03-26T07:37:29;99567.97;;;9.32;99.00
19676;BME280;39539;52.202;9.876;2023-03-26T07:42:36;99564.28;;;9.99;97.00
19676;BME280;39539;52.202;9.876;2023-03-26T07:47:42;99566.56;;;10.77;90.51
19676;BME280;39539;52.202;9.876;2023-03-26T07:50:14;99554.16;;;10.83;86.63
19676;BME280;39539;52.202;9.876;2023-03-26T07:52:40;99540.44;;;10.74;87.31
19676;BME280;39539;52.202;9.876;2023-03-26T07:55:06;99539.13;;;11.17;87.57
19676;BME280;39539;52.202;9.876;2023-03-26T08:00:40;99540.97;;;11.96;81.02
19676;BME280;39539;52.202;9.876;2023-03-26T08:06:26;99521.13;;;12.43;77.94
19676;BME280;39539;52.202;9.876;2023-03-26T08:12:17;99508.47;;;12.33;77.87
19676;BME280;39539;52.202;9.876;2023-03-26T08:15:02;99508.16;;;12.29;79.18
19676;BME280;39539;52.202;9.876;2023-03-26T08:17:45;99500.97;;;12.30;80.56
19676;BME280;39539;52.202;9.876;2023-03-26T08:20:39;99503.63;;;12.30;77.89
19676;BME280;39539;52.202;9.876;2023-03-26T08:23:18;99498.88;;;11.93;79.32
19676;BME280;39539;52.202;9.876;2023-03-26T08:26:24;99484.25;;;11.28;83.25
19676;BME280;39539;52.202;9.876;2023-03-26T08:29:03;99489.84;;;11.27;83.92
19676;BME280;39539;52.202;9.876;2023-03-26T08:31:34;99493.94;;;11.34;83.57
19676;BME280;39539;52.202;9.876;2023-03-26T08:34:00;99490.06;;;11.42;85.01
19676;BME280;39539;52.202;9.876;2023-03-26T08:36:25;99493.53;;;11.42;85.42
19676;BME280;39539;52.202;9.876;2023-03-26T08:38:52;99485.84;;;11.29;83.44
19676;BME280;39539;52.202;9.876;2023-03-26T08:47:17;99482.69;;;10.98;84.90
19676;BME280;39539;52.202;9.876;2023-03-26T08:57:58;99480.03;;;12.00;82.03
19676;BME280;39539;52.202;9.876;2023-03-26T09:06:43;99474.13;;;12.58;81.49
19676;BME280;39539;52.202;9.876;2023-03-26T09:12:10;99481.38;;;14.29;71.83
19676;BME280;39539;52.202;9.876;2023-03-26T09:17:55;99460.88;;;14.50;70.06
19676;BME280;39539;52.202;9.876;2023-03-26T09:37:16;99447.06;;;14.64;67.25
19676;BME280;39539;52.202;9.876;2023-03-26T09:42:53;99443.09;;;14.87;68.46
19676;BME280;39539;52.202;9.876;2023-03-26T09:46:17;99449.97;;;14.57;70.25
19676;BME280;39539;52.202;9.876;2023-03-26T09:57:15;99430.19;;;12.17;79.05
19676;BME280;39539;52.202;9.876;2023-03-26T10:08:01;99422.59;;;11.31;80.24
19676;BME280;39539;52.202;9.876;2023-03-26T10:15:49;99438.63;;;12.80;74.86
19676;BME280;39539;52.202;9.876;2023-03-26T10:18:26;99431.78;;;13.16;73.76
19676;BME280;39539;52.202;9.876;2023-03-26T10:21:08;99431.22;;;14.52;68.76
19676;BME280;39539;52.202;9.876;2023-03-26T10:32:05;99401.06;;;14.77;68.00
19676;BME280;39539;52.202;9.876;2023-03-26T10:35:07;99401.34;;;14.96;63.73
19676;BME280;39539;52.202;9.876;2023-03-26T10:40:33;99392.75;;;14.53;69.86
19676;BME280;39539;52.202;9.876;2023-03-26T10:43:27;99396.28;;;14.06;69.86
19676;BME280;39539;52.202;9.876;2023-03-26T10:51:51;99398.94;;;14.01;70.02
19676;BME280;39539;52.202;9.876;2023-03-26T10:54:38;99395.25;;;14.12;68.90
19676;BME280;39539;52.202;9.876;2023-03-26T10:57:16;99400.25;;;14.61;67.92
19676;BME280;39539;52.202;9.876;2023-03-26T10:59:43;99389.84;;;14.85;65.36
19676;BME280;39539;52.202;9.876;2023-03-26T11:02:29;99386.25;;;14.38;67.93
19676;BME280;39539;52.202;9.876;2023-03-26T11:05:07;99375.53;;;14.33;66.02
19676;BME280;39539;52.202;9.876;2023-03-26T11:07:53;99376.06;;;14.30;66.53
19676;BME280;39539;52.202;9.876;2023-03-26T11:16:02;99386.66;;;14.00;69.11
19676;BME280;39539;52.202;9.876;2023-03-26T11:18:44;99380.00;;;13.55;70.53
19676;BME280;39539;52.202;9.876;2023-03-26T11:21:25;99382.44;;;13.61;67.26
19676;BME280;39539;52.202;9.876;2023-03-26T11:26:59;99380.41;;;13.31;70.30
19676;BME280;39539;52.202;9.876;2023-03-26T11:29:41;99377.22;;;13.34;69.78
19676;BME280;39539;52.202;9.876;2023-03-26T11:32:24;99376.97;;;13.03;73.53
19676;BME280;39539;52.202;9.876;2023-03-26T11:34:59;99372.78;;;12.53;72.36
19676;BME280;39539;52.202;9.876;2023-03-26T11:37:37;99362.13;;;12.53;69.57
19676;BME280;39539;52.202;9.876;2023-03-26T11:40:13;99368.91;;;12.39;74.45
19676;BME280;39539;52.202;9.876;2023-03-26T11:42:40;99372.94;;;12.42;75.02
19676;BME280;39539;52.202;9.876;2023-03-26T11:45:13;99364.34;;;12.12;78.01
19676;BME280;39539;52.202;9.876;2023-03-26T11:47:48;99369.91;;;12.33;76.09
19676;BME280;39539;52.202;9.876;2023-03-26T11:50:18;99374.50;;;12.16;76.70
19676;BME280;39539;52.202;9.876;2023-03-26T11:52:44;99366.28;;;12.44;72.77
19676;BME280;39539;52.202;9.876;2023-03-26T11:55:11;99373.84;;;12.52;74.40
19676;BME280;39539;52.202;9.876;2023-03-26T11:57:39;99355.88;;;11.94;77.49
19676;BME280;39539;52.202;9.876;2023-03-26T12:00:14;99378.28;;;12.20;75.61
19676;BME280;39539;52.202;9.876;2023-03-26T12:02:44;99380.13;;;11.97;76.21
19676;BME280;39539;52.202;9.876;2023-03-26T12:05:22;99375.63;;;11.59;80.59
19676;BME280;39539;52.202;9.876;2023-03-26T12:07:59;99370.34;;;11.42;78.75
19676;BME280;39539;52.202;9.876;2023-03-26T12:10:32;99367.28;;;11.33;83.30
19676;BME280;39539;52.202;9.876;2023-03-26T12:13:01;99367.78;;;11.13;83.09
19676;BME280;39539;52.202;9.876;2023-03-26T12:15:28;99355.03;;;10.65;84.60
19676;BME280;39539;52.202;9.876;2023-03-26T12:17:57;99373.25;;;10.90;86.64
19676;BME280;39539;52.202;9.876;2023-03-26T12:22:52;99370.84;;;11.05;83.83
19676;BME280;39539;52.202;9.876;2023-03-26T12:25:24;99370.84;;;11.05;86.33
19676;BME280;39539;52.202;9.876;2023-03-26T12:28:04;99369.56;;;10.91;82.42
19676;BME280;39539;52.202;9.876;2023-03-26T12:30:50;99360.63;;;10.97;84.37
19676;BME280;39539;52.202;9.876;2023-03-26T12:33:23;99370.69;;;11.12;83.10
19676;BME280;39539;52.202;9.876;2023-03-26T12:35:50;99370.59;;;11.23;83.05
19676;BME280;39539;52.202;9.876;2023-03-26T12:38:29;99375.44;;;11.27;83.44
19676;BME280;39539;52.202;9.876;2023-03-26T12:41:10;99373.91;;;11.31;83.53
19676;BME280;39539;52.202;9.876;2023-03-26T12:43:52;99377.84;;;11.45;82.23
19676;BME280;39539;52.202;9.876;2023-03-26T12:46:34;99379.16;;;11.64;81.37
19676;BME280;39539;52.202;9.876;2023-03-26T12:49:03;99380.13;;;11.75;81.69
19676;BME280;39539;52.202;9.876;2023-03-26T12:51:48;99386.53;;;11.96;77.58
19676;BME280;39539;52.202;9.876;2023-03-26T12:54:43;99382.56;;;11.99;76.62
19676;BME280;39539;52.202;9.876;2023-03-26T13:00:05;99383.94;;;12.01;77.44
19676;BME280;39539;52.202;9.876;2023-03-26T13:11:12;99361.41;;;11.87;80.01
19676;BME280;39539;52.202;9.876;2023-03-26T13:14:03;99366.81;;;11.97;73.64
19676;BME280;39539;52.202;9.876;2023-03-26T13:16:49;99359.41;;;11.99;72.84
19676;BME280;39539;52.202;9.876;2023-03-26T13:19:37;99357.72;;;11.93;75.61
19676;BME280;39539;52.202;9.876;2023-03-26T13:22:25;99350.00;;;11.75;76.56
19676;BME280;39539;52.202;9.876;2023-03-26T13:33:30;99336.50;;;11.20;80.88
19676;BME280;39539;52.202;9.876;2023-03-26T13:41:46;99333.84;;;11.20;80.98
19676;BME280;39539;52.202;9.876;2023-03-26T13:44:54;99330.72;;;10.90;79.75
19676;BME280;39539;52.202;9.876;2023-03-26T13:47:27;99329.09;;;11.06;78.14
19676;BME280;39539;52.202;9.876;2023-03-26T13:50:13;99324.28;;;10.86;77.44
19676;BME280;39539;52.202;9.876;2023-03-26T13:52:46;99314.38;;;10.81;77.33
19676;BME280;39539;52.202;9.876;2023-03-26T13:58:10;99327.03;;;10.91;80.24
19676;BME280;39539;52.202;9.876;2023-03-26T14:09:20;99340.31;;;10.28;96.14
19676;BME280;39539;52.202;9.876;2023-03-26T14:14:41;99349.19;;;9.94;100.00
19676;BME280;39539;52.202;9.876;2023-03-26T14:17:40;99354.50;;;9.82;100.00
19676;BME280;39539;52.202;9.876;2023-03-26T14:23:04;99363.28;;;9.82;100.00
19676;BME280;39539;52.202;9.876;2023-03-26T14:28:23;99376.47;;;9.65;100.00
19676;BME280;39539;52.202;9.876;2023-03-26T14:36:33;99385.34;;;9.36;100.00
19676;BME280;39539;52.202;9.876;2023-03-26T14:39:27;99387.06;;;9.18;100.00
19676;BME280;39539;52.202;9.876;2023-03-26T14:42:11;99391.69;;;9.23;100.00
19676;BME280;39539;52.202;9.876;2023-03-26T14:45:20;99398.34;;;9.14;100.00
19676;BME280;39539;52.202;9.876;2023-03-26T14:48:21;99399.03;;;8.97;100.00
19676;BME280;39539;52.202;9.876;2023-03-26T14:53:35;99389.78;;;8.88;100.00
19676;BME280;39539;52.202;9.876;2023-03-26T15:04:41;99414.97;;;8.67;100.00
19676;BME280;39539;52.202;9.876;2023-03-26T15:07:25;99421.88;;;8.68;100.00
19676;BME280;39539;52.202;9.876;2023-03-26T15:40:22;99445.97;;;8.30;100.00
19676;BME280;39539;52.202;9.876;2023-03-26T15:43:09;99436.28;;;8.24;100.00
19676;BME280;39539;52.202;9.876;2023-03-26T15:51:12;99450.47;;;8.29;100.00
19676;BME280;39539;52.202;9.876;2023-03-26T15:53:53;99441.19;;;8.20;100.00
19676;BME280;39539;52.202;9.876;2023-03-26T15:59:51;99446.13;;;8.35;100.00
19676;BME280;39539;52.202;9.876;2023-03-26T16:02:38;99454.47;;;8.32;100.00
19676;BME280;39539;52.202;9.876;2023-03-26T16:05:26;99452.66;;;8.14;100.00
19676;BME280;39539;52.202;9.876;2023-03-26T16:08:03;99454.88;;;8.17;100.00
19676;BME280;39539;52.202;9.876;2023-03-26T16:10:50;99447.28;;;8.21;100.00
19676;BME280;39539;52.202;9.876;2023-03-26T16:15:42;99455.22;;;8.21;100.00
19676;BME280;39539;52.202;9.876;2023-03-26T16:23:35;99447.91;;;8.04;100.00
19676;BME280;39539;52.202;9.876;2023-03-26T16:26:22;99447.81;;;7.93;98.34
19676;BME280;39539;52.202;9.876;2023-03-26T16:31:17;99444.63;;;7.84;99.01
19676;BME280;39539;52.202;9.876;2023-03-26T16:34:24;99442.88;;;7.78;98.42
19676;BME280;39539;52.202;9.876;2023-03-26T16:36:51;99438.44;;;7.72;97.82
19676;BME280;39539;52.202;9.876;2023-03-26T16:39:20;99444.19;;;7.69;98.59
19676;BME280;39539;52.202;9.876;2023-03-26T16:42:22;99448.22;;;7.71;97.12
19676;BME280;39539;52.202;9.876;2023-03-26T16:45:16;99446.63;;;7.70;97.18
19676;BME280;39539;52.202;9.876;2023-03-26T16:58:53;99458.88;;;7.64;93.17
19676;BME280;39539;52.202;9.876;2023-03-26T17:01:39;99462.38;;;7.58;94.21
19676;BME280;39539;52.202;9.876;2023-03-26T17:04:15;99457.84;;;7.65;94.65
19676;BME280;39539;52.202;9.876;2023-03-26T17:07:02;99465.97;;;7.64;94.90
19676;BME280;39539;52.202;9.876;2023-03-26T17:09:42;99456.72;;;7.55;94.91
19676;BME280;39539;52.202;9.876;2023-03-26T17:12:35;99463.03;;;7.54;93.98
19676;BME280;39539;52.202;9.876;2023-03-26T17:26:22;99479.53;;;7.49;93.82
19676;BME280;39539;52.202;9.876;2023-03-26T17:29:00;99480.56;;;7.48;93.14
19676;BME280;39539;52.202;9.876;2023-03-26T17:37:24;99487.56;;;7.36;93.56
19676;BME280;39539;52.202;9.876;2023-03-26T17:42:31;99497.38;;;7.29;93.60
19676;BME280;39539;52.202;9.876;2023-03-26T17:45:00;99490.94;;;7.18;91.87
19676;BME280;39539;52.202;9.876;2023-03-26T17:47:33;99499.06;;;7.23;91.50
19676;BME280;39539;52.202;9.876;2023-03-26T17:50:18;99494.25;;;7.13;90.74
19676;BME280;39539;52.202;9.876;2023-03-26T17:52:54;99508.44;;;7.19;90.17
19676;BME280;39539;52.202;9.876;2023-03-26T17:55:26;99511.47;;;7.16;90.69